Time;durP1;ratioP1;P1;durP2;ratioP2;P2;SDS_P1;SDS_P2;PMS_P1;PMS_P2;Temp;Humidity;BMP_temperature;BMP_pressure;BME280_temperature;BME280_humidity;BME280_pressure;Samples;Min_cycle;Max_cycle;Signal;HPM_P1;HPM_P2
2022/10/23 00:03:25;;;;;;;48.45;24.92;;;;;;;7.45;100.00;101341.19;12875045;22;20000;-88
2022/10/23 00:08:25;;;;;;;44.38;24.95;;;;;;;7.58;100.00;101342.16;12872372;22;20414;-87
2022/10/23 00:13:26;;;;;;;54.90;26.98;;;;;;;8.10;100.00;101438.72;12897375;22;20035;-88
2022/10/23 00:18:26;;;;;;;53.97;27.33;;;;;;;8.15;100.00;101449.88;12873488;22;20012;-88
2022/10/23 00:23:27;;;;;;;58.72;28.45;;;;;;;7.74;100.00;101347.09;12860768;22;20004;-90
2022/10/23 00:28:28;;;;;;;58.40;28.73;;;;;;;8.84;100.00;101523.97;12884714;22;20031;-87
2022/10/23 00:33:28;;;;;;;62.83;27.92;;;;;;;7.23;100.00;101249.50;12885428;22;20087;-88
2022/10/23 00:38:29;;;;;;;52.40;28.38;;;;;;;7.97;100.00;101378.53;12913728;22;20006;-88
2022/10/23 00:43:30;;;;;;;58.30;30.05;;;;;;;7.31;100.00;101281.25;12861340;22;20042;-88
2022/10/23 00:48:30;;;;;;;62.63;29.70;;;;;;;8.73;100.00;101494.53;12886621;22;20016;-90
2022/10/23 00:53:33;;;;;;;61.97;28.50;;;;;;;7.39;100.00;101268.13;12876795;22;20095;-91
2022/10/23 00:58:34;;;;;;;55.83;26.80;;;;;;;7.18;100.00;101246.63;12891932;22;20004;-91
2022/10/23 01:03:34;;;;;;;63.58;28.40;;;;;;;7.89;100.00;101354.97;12889367;22;20015;-90
2022/10/23 01:08:49;;;;;;;66.22;28.48;;;;;;;7.69;100.00;101333.22;12881407;22;20086;-90
2022/10/23 01:14:00;;;;;;;57.25;27.50;;;;;;;7.03;100.00;101230.50;12890403;22;20027;-90
2022/10/23 01:19:09;;;;;;;59.22;28.38;;;;;;;7.47;100.00;101322.63;12920651;22;20460;-91
2022/10/23 01:24:28;;;;;;;50.50;27.90;;;;;;;8.18;100.00;101430.22;12853117;22;20445;-91
2022/10/23 01:29:45;;;;;;;56.35;27.40;;;;;;;8.11;100.00;101432.19;12919556;22;20016;-91
2022/10/23 01:34:49;;;;;;;56.90;27.30;;;;;;;8.02;100.00;101403.34;12894745;22;20553;-87
2022/10/23 01:39:54;;;;;;;54.85;27.40;;;;;;;7.40;100.00;101312.78;12889509;22;20137;-88
2022/10/23 01:45:24;;;;;;;56.00;25.17;;;;;;;7.33;100.00;101288.19;12892536;22;20019;-89
2022/10/23 01:50:24;;;;;;;47.55;23.75;;;;;;;6.63;100.00;101187.81;12910924;22;20020;-91
2022/10/23 01:55:27;;;;;;;59.47;26.25;;;;;;;7.12;100.00;101277.63;12892088;22;19995;-91
2022/10/23 02:00:28;;;;;;;48.60;24.73;;;;;;;7.25;100.00;101335.03;12891204;22;20004;-87
2022/10/23 02:05:29;;;;;;;45.03;25.15;;;;;;;6.52;100.00;101215.88;12893961;22;20023;-88
2022/10/23 02:10:50;;;;;;;51.95;26.63;;;;;;;8.28;100.00;101474.44;12888959;22;20094;-90
2022/10/23 02:16:02;;;;;;;54.70;26.88;;;;;;;6.49;100.00;101212.75;12930805;22;20055;-91
2022/10/23 02:21:11;;;;;;;61.35;26.52;;;;;;;7.44;100.00;101360.59;12914809;22;20457;-88
2022/10/23 02:26:36;;;;;;;49.38;25.98;;;;;;;7.88;100.00;101432.81;12887308;22;20003;-88
2022/10/23 02:31:37;;;;;;;51.17;25.55;;;;;;;7.08;100.00;101310.06;12891303;22;20020;-87
2022/10/23 02:36:37;;;;;;;51.90;26.08;;;;;;;6.49;100.00;101166.25;12890097;22;20100;-87
2022/10/23 02:41:48;;;;;;;49.60;25.63;;;;;;;7.30;100.00;101307.81;12888074;22;20441;-87
2022/10/23 02:47:10;;;;;;;45.17;24.00;;;;;;;7.20;100.00;101304.75;12858997;22;20322;-88
2022/10/23 02:52:20;;;;;;;47.17;23.58;;;;;;;7.20;100.00;101296.53;12962367;22;20098;-88
2022/10/23 02:57:43;;;;;;;51.65;25.80;;;;;;;8.11;100.00;101434.94;12912422;22;20015;-88
2022/10/23 03:02:57;;;;;;;49.17;26.55;;;;;;;7.43;100.00;101302.22;12900272;22;20003;-91
2022/10/23 03:07:58;;;;;;;48.13;25.02;;;;;;;7.79;100.00;101333.56;12877784;22;20004;-88
2022/10/23 03:12:58;;;;;;;46.25;25.73;;;;;;;7.65;100.00;101279.94;12849463;22;20354;-88
2022/10/23 03:17:59;;;;;;;57.80;26.92;;;;;;;7.14;100.00;101180.50;12899716;22;20314;-91
2022/10/23 03:23:00;;;;;;;52.15;28.40;;;;;;;6.92;100.00;101141.72;12890064;22;20012;-91
2022/10/23 03:28:02;;;;;;;64.07;32.58;;;;;;;7.11;100.00;101160.94;12847519;22;20012;-91
2022/10/23 03:33:03;;;;;;;60.00;31.98;;;;;;;7.25;100.00;101157.00;12886987;22;20011;-88
2022/10/23 03:38:03;;;;;;;57.88;31.98;;;;;;;8.29;100.00;101306.03;12897285;22;20026;-88
2022/10/23 03:43:04;;;;;;;59.42;32.67;;;;;;;7.69;100.00;101166.06;12885958;22;20027;-87
2022/10/23 03:48:05;;;;;;;60.72;31.17;;;;;;;7.45;100.00;101100.13;12869998;22;20003;-88
2022/10/23 03:53:08;;;;;;;58.88;29.67;;;;;;;8.93;100.00;101324.06;12916586;22;20016;-91
2022/10/23 03:58:09;;;;;;;52.00;28.80;;;;;;;7.30;100.00;101075.03;12870640;22;20095;-88
2022/10/23 04:03:09;;;;;;;52.70;29.20;;;;;;;8.67;100.00;101329.66;12889108;22;20015;-88
2022/10/23 04:08:10;;;;;;;58.00;29.98;;;;;;;8.20;100.00;101296.44;12858216;22;20003;-88
2022/10/23 04:13:13;;;;;;;49.72;28.30;;;;;;;8.98;100.00;101387.38;12890128;22;20026;-91
2022/10/23 04:18:14;;;;;;;55.80;29.42;;;;;;;7.44;100.00;101180.66;12873837;22;20015;-88
2022/10/23 04:23:15;;;;;;;57.17;30.30;;;;;;;7.53;100.00;101183.09;12887772;22;20334;-91
2022/10/23 04:28:15;;;;;;;67.47;31.63;;;;;;;8.15;100.00;101276.25;12890542;22;20004;-88
2022/10/23 04:33:18;;;;;;;61.33;31.70;;;;;;;8.12;100.00;101298.63;12890184;22;20396;-88
2022/10/23 04:38:19;;;;;;;64.90;33.05;;;;;;;6.80;100.00;101080.56;12874466;22;20082;-89
2022/10/23 04:43:20;;;;;;;72.03;34.25;;;;;;;7.08;100.00;101104.72;12889480;22;20019;-89
2022/10/23 04:48:21;;;;;;;85.18;37.22;;;;;;;7.49;100.00;101190.91;12891879;22;20480;-91
2022/10/23 04:53:22;;;;;;;80.65;38.28;;;;;;;7.52;100.00;101187.72;12856838;22;20442;-91
2022/10/23 04:58:23;;;;;;;76.22;38.28;;;;;;;7.81;100.00;101223.69;12891955;22;20035;-91
2022/10/23 05:03:23;;;;;;;92.43;40.58;;;;;;;6.41;100.00;100995.06;12890893;22;20014;-90
2022/10/23 05:08:24;;;;;;;90.32;41.03;;;;;;;6.96;100.00;101063.56;12830096;22;20438;-90
2022/10/23 05:13:25;;;;;;;93.05;41.53;;;;;;;7.60;100.00;101208.50;12873919;22;20055;-88
2022/10/23 05:18:26;;;;;;;93.03;41.58;;;;;;;8.19;100.00;101267.34;12898454;22;20028;-88
2022/10/23 05:23:27;;;;;;;82.88;40.63;;;;;;;7.76;100.00;101224.38;12888382;22;20008;-88
2022/10/23 05:28:28;;;;;;;86.40;41.65;;;;;;;7.51;100.00;101163.31;12874360;22;20004;-88
2022/10/23 05:33:28;;;;;;;91.43;39.35;;;;;;;7.87;100.00;101231.84;12860588;22;20023;-91
2022/10/23 05:38:31;;;;;;;80.63;37.22;;;;;;;7.42;100.00;101147.16;12851576;22;20065;-91
2022/10/23 05:43:34;;;;;;;88.18;39.35;;;;;;;7.29;100.00;101119.91;12863885;22;20027;-88
2022/10/23 05:48:35;;;;;;;76.18;36.83;;;;;;;7.83;100.00;101227.03;12892122;22;20426;-89
2022/10/23 05:53:35;;;;;;;74.70;36.33;;;;;;;7.16;100.00;101129.09;12875976;22;20020;-92
2022/10/23 05:58:37;;;;;;;90.47;39.22;;;;;;;6.84;100.00;101084.53;12879883;22;20019;-88
2022/10/23 06:03:37;;;;;;;93.13;40.83;;;;;;;7.81;100.00;101271.13;12890023;22;20434;-91
2022/10/23 06:08:38;;;;;;;96.60;39.40;;;;;;;7.34;100.00;101158.41;12891789;22;19996;-92
2022/10/23 06:13:43;;;;;;;82.18;38.83;;;;;;;7.51;100.00;101166.03;12887792;22;20019;-91
2022/10/23 06:18:44;;;;;;;85.47;39.60;;;;;;;7.81;100.00;101221.78;12891911;22;20069;-91
2022/10/23 06:23:45;;;;;;;95.60;41.25;;;;;;;6.10;100.00;100947.59;12889790;22;20027;-88
2022/10/23 06:28:46;;;;;;;99.57;42.25;;;;;;;7.00;100.00;101061.22;12877036;22;20034;-88
2022/10/23 06:33:46;;;;;;;105.55;43.28;;;;;;;8.52;100.00;101314.69;12859148;22;20453;-88
2022/10/23 06:38:48;;;;;;;84.07;40.65;;;;;;;7.33;100.00;101060.03;12882397;22;20011;-89
2022/10/23 06:43:49;;;;;;;98.50;41.75;;;;;;;7.55;100.00;101118.78;12909528;22;20003;-92
2022/10/23 06:48:50;;;;;;;100.43;42.47;;;;;;;7.28;100.00;101066.19;12854804;22;20023;-92
2022/10/23 06:53:50;;;;;;;100.40;42.83;;;;;;;7.46;100.00;101092.72;12870412;22;20442;-91
2022/10/23 06:58:51;;;;;;;88.30;40.80;;;;;;;7.89;100.00;101109.06;12851559;22;20008;-91
2022/10/23 07:03:52;;;;;;;88.45;38.60;;;;;;;7.98;100.00;101150.75;12868729;22;20097;-88
2022/10/23 07:08:52;;;;;;;92.72;39.13;;;;;;;8.10;100.00;101101.41;12886816;22;20035;-88
2022/10/23 07:13:53;;;;;;;91.72;39.70;;;;;;;7.98;100.00;101078.59;12874959;22;20035;-88
2022/10/23 07:18:58;;;;;;;81.43;36.60;;;;;;;9.50;100.00;101319.81;12885325;22;20016;-92
2022/10/23 07:23:58;;;;;;;77.60;35.42;;;;;;;8.68;100.00;101163.06;12888299;22;20004;-88
2022/10/23 07:28:59;;;;;;;80.28;35.60;;;;;;;8.58;100.00;101116.13;12915241;22;20043;-92
2022/10/23 07:33:59;;;;;;;75.28;35.10;;;;;;;7.94;100.00;101003.34;12887130;22;20015;-92
2022/10/23 07:39:00;;;;;;;75.78;35.20;;;;;;;9.09;100.00;101161.34;12855840;22;20023;-92
2022/10/23 07:44:03;;;;;;;83.07;36.20;;;;;;;9.61;100.00;101218.34;12888943;22;20023;-92
2022/10/23 07:49:03;;;;;;;76.57;32.90;;;;;;;9.07;100.00;101108.56;12863836;22;20004;-92
2022/10/23 07:54:04;;;;;;;77.63;32.70;;;;;;;8.47;100.00;101019.00;12899308;22;20011;-92
2022/10/23 07:59:04;;;;;;;71.75;33.50;;;;;;;9.21;100.00;101114.66;12874953;22;20039;-92
2022/10/23 08:04:05;;;;;;;69.03;31.45;;;;;;;9.74;100.00;101190.63;12875656;22;20449;-91
2022/10/23 08:09:05;;;;;;;70.03;31.10;;;;;;;9.62;100.00;101154.06;12894992;22;20085;-92
2022/10/23 08:14:07;;;;;;;64.68;30.17;;;;;;;9.74;100.00;101160.38;12871080;22;20028;-92
2022/10/23 08:19:07;;;;;;;67.32;31.00;;;;;;;9.65;100.00;101106.84;12896217;22;20012;-92
2022/10/23 08:24:12;;;;;;;53.15;27.52;;;;;;;9.64;100.00;101061.19;12880544;22;20406;-92
2022/10/23 08:29:13;;;;;;;62.25;27.02;;;;;;;9.03;100.00;100959.06;12894213;22;20424;-91
2022/10/23 08:34:14;;;;;;;54.03;26.35;;;;;;;10.28;100.00;101152.69;12894143;22;20034;-92
2022/10/23 08:39:15;;;;;;;49.97;25.45;;;;;;;9.78;100.00;101015.03;12851568;22;20004;-92
2022/10/23 08:44:34;;;;;;;50.70;25.58;;;;;;;10.51;100.00;101134.44;12865509;22;20023;-91
2022/10/23 08:49:46;;;;;;;45.53;24.55;;;;;;;10.01;100.00;101011.31;12862120;22;20054;-91
2022/10/23 08:55:11;;;;;;;42.38;23.75;;;;;;;9.85;100.00;100939.53;12850212;22;20008;-90
2022/10/23 09:00:13;;;;;;;47.10;23.80;;;;;;;10.57;100.00;101045.34;12844739;22;20008;-90
2022/10/23 09:05:29;;;;;;;39.30;22.02;;;;;;;10.99;100.00;101088.94;12826691;22;19999;-89
2022/10/23 09:10:34;;;;;;;35.83;19.40;;;;;;;11.63;100.00;101140.03;12852312;22;20043;-90
2022/10/23 09:16:08;;;;;;;44.45;19.67;;;;;;;10.74;100.00;100983.91;12848979;22;20039;-91
2022/10/23 09:21:09;;;;;;;30.83;17.83;;;;;;;10.97;100.00;100996.63;12806267;22;20027;-90
2022/10/23 09:26:13;;;;;;;30.98;18.15;;;;;;;11.41;100.00;101047.13;12840388;22;20338;-89
2022/10/23 09:31:14;;;;;;;28.25;16.05;;;;;;;11.60;100.00;101047.63;12791418;22;20037;-90
2022/10/23 09:36:26;;;;;;;27.98;16.90;;;;;;;12.15;100.00;101050.47;12811855;22;20008;-91
2022/10/23 09:41:35;;;;;;;23.15;16.52;;;;;;;12.26;100.00;101027.41;12816740;22;20079;-90
2022/10/23 09:46:43;;;;;;;27.70;15.80;;;;;;;13.12;100.00;101110.16;12871401;22;19996;-88
2022/10/23 09:52:02;;;;;;;24.02;14.55;;;;;;;13.82;100.00;101173.66;12873986;22;20450;-89
2022/10/23 09:57:21;;;;;;;22.98;11.95;;;;;;;13.26;100.00;101032.28;12924539;22;20004;-92
2022/10/23 10:02:26;;;;;;;17.33;11.52;;;;;;;13.47;100.00;101053.41;12923372;22;20015;-90
2022/10/23 10:07:28;;;;;;;16.80;10.63;;;;;;;13.03;100.00;100973.53;12894981;22;20079;-91
2022/10/23 10:12:42;;;;;;;16.05;9.45;;;;;;;14.02;100.00;101103.72;12883271;22;20049;-92
2022/10/23 10:18:04;;;;;;;16.38;9.10;;;;;;;13.17;100.00;100967.50;12897134;22;20019;-89
2022/10/23 10:23:08;;;;;;;16.92;8.10;;;;;;;13.96;100.00;101007.94;12933523;22;20349;-90
2022/10/23 10:28:20;;;;;;;13.95;8.25;;;;;;;14.61;100.00;101085.84;12929019;22;20019;-92
2022/10/23 10:33:27;;;;;;;19.40;8.93;;;;;;;14.32;100.00;101021.81;12875801;22;20045;-90
2022/10/23 10:38:48;;;;;;;11.77;8.88;;;;;;;15.15;100.00;101089.97;12858250;22;20012;-91
2022/10/23 10:43:55;;;;;;;10.73;7.63;;;;;;;14.26;100.00;100915.78;12913467;22;20008;-89
2022/10/23 10:49:25;;;;;;;12.05;8.38;;;;;;;14.52;100.00;100904.66;12833652;22;20007;-88
2022/10/23 10:54:39;;;;;;;13.40;6.85;;;;;;;15.04;100.00;100958.84;12942143;22;20011;-89
2022/10/23 10:59:41;;;;;;;16.10;7.25;;;;;;;14.87;100.00;100897.38;12882469;22;20014;-93
2022/10/23 11:05:12;;;;;;;14.68;7.68;;;;;;;15.39;100.00;101006.16;12869078;22;20030;-89
2022/10/23 11:10:17;;;;;;;10.90;5.72;;;;;;;14.72;100.00;100907.41;12903851;22;20450;-93
2022/10/23 11:15:24;;;;;;;9.50;6.32;;;;;;;15.29;100.00;100984.84;12890534;22;20023;-91
2022/10/23 11:20:49;;;;;;;9.30;6.50;;;;;;;15.94;100.00;101032.84;12890780;22;20004;-90
2022/10/23 11:25:57;;;;;;;12.38;6.35;;;;;;;16.00;100.00;101007.81;12914089;22;20016;-92
2022/10/23 11:31:04;;;;;;;15.43;6.80;;;;;;;16.04;100.00;100981.97;12914113;22;20069;-91
2022/10/23 11:36:39;;;;;;;13.07;6.15;;;;;;;15.11;100.00;100870.66;12926283;22;20008;-90
2022/10/23 11:41:46;;;;;;;12.75;5.80;;;;;;;14.70;100.00;100809.88;12901906;22;20004;-89
2022/10/23 11:46:47;;;;;;;11.80;5.82;;;;;;;15.44;100.00;100878.50;12844493;22;20008;-90
2022/10/23 11:51:58;;;;;;;10.98;5.32;;;;;;;14.72;100.00;100762.47;12888688;22;20020;-89
2022/10/23 11:57:14;;;;;;;12.43;6.05;;;;;;;14.79;100.00;100734.44;12889009;22;20018;-88
2022/10/23 12:02:30;;;;;;;12.53;5.73;;;;;;;15.07;100.00;100786.41;12888998;22;20023;-88
2022/10/23 12:07:33;;;;;;;8.95;6.30;;;;;;;15.59;100.00;100885.94;12875806;22;20079;-88
2022/10/23 12:12:39;;;;;;;9.02;5.40;;;;;;;14.28;100.00;100692.03;12888233;22;20019;-89
2022/10/23 12:17:43;;;;;;;11.02;5.88;;;;;;;15.21;100.00;100819.84;12900884;22;20480;-89
2022/10/23 12:22:46;;;;;;;9.43;5.45;;;;;;;15.14;100.00;100780.53;12888619;22;20090;-89
2022/10/23 12:27:51;;;;;;;8.70;5.38;;;;;;;15.11;100.00;100787.47;12938314;22;20024;-89
2022/10/23 12:33:07;;;;;;;9.57;6.60;;;;;;;15.79;100.00;100877.47;12887809;22;20020;-89
2022/10/23 12:38:19;;;;;;;8.98;5.35;;;;;;;15.51;100.00;100791.06;12913542;22;20462;-88
2022/10/23 12:43:27;;;;;;;9.27;6.40;;;;;;;15.11;100.00;100725.63;12938211;22;20003;-88
2022/10/23 12:48:27;;;;;;;9.40;4.47;;;;;;;15.26;100.00;100716.38;12913642;22;20418;-89
2022/10/23 12:53:28;;;;;;;8.07;4.72;;;;;;;15.27;100.00;100688.34;12890381;22;20012;-88
2022/10/23 12:58:33;;;;;;;8.60;4.70;;;;;;;15.50;100.00;100686.78;12891005;22;20012;-88
2022/10/23 13:03:33;;;;;;;10.43;4.32;;;;;;;15.43;100.00;100655.75;12892634;22;20102;-89
2022/10/23 13:08:39;;;;;;;8.18;4.13;;;;;;;14.94;100.00;100584.66;12861434;22;20007;-90
2022/10/23 13:13:40;;;;;;;6.03;3.93;;;;;;;15.22;100.00;100629.34;12892118;22;20401;-89
2022/10/23 13:18:40;;;;;;;8.55;4.47;;;;;;;15.79;100.00;100721.19;12891835;22;20086;-90
2022/10/23 13:23:42;;;;;;;10.02;4.55;;;;;;;15.35;100.00;100639.75;12890562;22;20083;-86
2022/10/23 13:28:43;;;;;;;8.32;5.18;;;;;;;15.21;100.00;100602.72;12890708;22;20011;-90
2022/10/23 13:33:51;;;;;;;10.00;4.97;;;;;;;15.65;100.00;100663.59;12877461;22;20016;-89
2022/10/23 13:38:59;;;;;;;6.75;4.20;;;;;;;16.17;100.00;100727.75;12891707;22;20035;-92
2022/10/23 13:43:59;;;;;;;8.25;4.40;;;;;;;14.93;100.00;100513.72;12917520;22;20012;-92
2022/10/23 13:49:00;;;;;;;7.15;4.00;;;;;;;15.29;100.00;100560.47;12892684;22;20008;-89
2022/10/23 13:54:00;;;;;;;10.10;4.13;;;;;;;15.79;100.00;100649.84;12891404;22;20031;-89
2022/10/23 13:59:01;;;;;;;8.73;4.68;;;;;;;16.21;100.00;100723.25;12915738;22;20003;-89
2022/10/23 14:04:03;;;;;;;7.68;3.95;;;;;;;15.49;100.00;100604.66;12915899;22;20011;-89
2022/10/23 14:09:05;;;;;;;10.23;4.18;;;;;;;14.92;100.00;100526.75;12891833;22;20048;-89
2022/10/23 14:14:06;;;;;;;11.68;4.55;;;;;;;15.31;100.00;100619.25;12890203;22;20015;-89
2022/10/23 14:19:07;;;;;;;9.23;3.75;;;;;;;14.96;100.00;100574.09;12901406;22;20008;-89
2022/10/23 14:24:08;;;;;;;11.55;4.72;;;;;;;15.51;100.00;100657.91;12896629;22;20008;-89
2022/10/23 14:29:08;;;;;;;8.75;4.00;;;;;;;14.80;100.00;100547.63;12891579;22;20086;-88
2022/10/23 14:34:09;;;;;;;11.20;3.78;;;;;;;14.33;100.00;100470.44;12890139;22;20047;-88
2022/10/23 14:39:09;;;;;;;5.30;4.32;;;;;;;14.10;100.00;100437.97;12915332;22;19999;-87
2022/10/23 14:44:10;;;;;;;10.20;4.13;;;;;;;14.47;100.00;100497.47;12890215;22;20011;-89
2022/10/23 14:49:10;;;;;;;7.13;3.92;;;;;;;14.41;100.00;100496.69;12890716;22;20438;-88
2022/10/23 14:54:11;;;;;;;10.70;4.97;;;;;;;14.55;100.00;100524.53;12890593;22;20058;-88
2022/10/23 14:59:13;;;;;;;11.38;3.88;;;;;;;14.64;100.00;100547.78;12891064;22;20038;-88
2022/10/23 15:04:14;;;;;;;10.80;4.30;;;;;;;14.03;100.00;100431.91;12890377;22;20053;-88
2022/10/23 15:09:15;;;;;;;8.27;4.20;;;;;;;14.45;100.00;100502.47;12892899;22;20000;-88
2022/10/23 15:14:15;;;;;;;6.95;3.97;;;;;;;14.37;100.00;100464.34;12890809;22;20090;-90
2022/10/23 15:19:16;;;;;;;5.95;4.10;;;;;;;14.99;100.00;100583.81;12890858;22;20093;-88
2022/10/23 15:24:16;;;;;;;6.85;4.18;;;;;;;14.94;100.00;100581.88;12916089;22;20370;-88
2022/10/23 15:29:17;;;;;;;11.50;5.18;;;;;;;14.38;100.00;100485.38;12891697;22;20008;-88
2022/10/23 15:34:19;;;;;;;9.48;4.13;;;;;;;14.48;100.00;100518.53;12891097;22;20008;-89
2022/10/23 15:39:21;;;;;;;9.45;4.70;;;;;;;14.31;100.00;100494.81;12891122;22;19996;-90
2022/10/23 15:44:23;;;;;;;6.60;4.45;;;;;;;14.82;100.00;100586.97;12891548;22;20012;-88
2022/10/23 15:49:24;;;;;;;8.52;4.45;;;;;;;13.98;100.00;100465.19;12892094;22;20387;-88
2022/10/23 15:54:25;;;;;;;7.45;4.97;;;;;;;14.41;100.00;100529.13;12916686;22;20008;-89
2022/10/23 15:59:26;;;;;;;8.98;4.78;;;;;;;14.31;100.00;100505.91;12890348;22;20070;-87
2022/10/23 16:04:27;;;;;;;11.27;4.25;;;;;;;13.74;100.00;100429.91;12890998;22;20000;-90
2022/10/23 16:09:28;;;;;;;7.07;4.80;;;;;;;14.13;100.00;100479.72;12890632;22;20000;-88
2022/10/23 16:14:29;;;;;;;12.27;4.43;;;;;;;13.82;100.00;100468.03;12888343;22;20098;-89
2022/10/23 16:19:29;;;;;;;8.80;4.00;;;;;;;13.76;100.00;100443.47;12887866;22;20046;-88
2022/10/23 16:24:30;;;;;;;10.00;4.70;;;;;;;13.19;100.00;100373.75;12888401;22;20008;-88
2022/10/23 16:29:30;;;;;;;10.25;5.03;;;;;;;13.09;100.00;100347.03;12891591;22;20038;-86
2022/10/23 16:34:31;;;;;;;7.00;4.07;;;;;;;13.95;100.00;100508.06;12915929;22;20027;-89
2022/10/23 16:39:31;;;;;;;10.32;4.70;;;;;;;12.84;100.00;100329.44;12892043;22;20027;-88
2022/10/23 16:44:32;;;;;;;10.02;4.43;;;;;;;12.59;100.00;100288.97;12891559;22;20028;-88
2022/10/23 16:49:32;;;;;;;9.15;4.38;;;;;;;12.89;100.00;100356.22;12891498;22;20004;-88
2022/10/23 16:54:33;;;;;;;8.55;4.10;;;;;;;12.96;100.00;100376.09;12891939;22;20027;-89
2022/10/23 16:59:34;;;;;;;9.52;4.65;;;;;;;13.17;100.00;100385.13;12892309;22;20014;-88
2022/10/23 17:04:35;;;;;;;11.85;4.32;;;;;;;13.58;100.00;100434.72;12894374;22;20008;-88
2022/10/23 17:09:37;;;;;;;9.05;4.55;;;;;;;12.32;100.00;100262.53;12894437;22;20023;-88
2022/10/23 17:14:38;;;;;;;8.80;3.92;;;;;;;12.38;100.00;100276.31;12879008;22;20054;-92
2022/10/23 17:19:40;;;;;;;5.43;4.10;;;;;;;12.61;100.00;100336.44;12921732;22;20049;-91
2022/10/23 17:24:40;;;;;;;7.07;4.60;;;;;;;12.99;100.00;100394.88;12723900;22;20347;-92
2022/10/23 17:29:41;;;;;;;8.73;4.07;;;;;;;13.25;100.00;100455.56;12841046;22;20008;-93
2022/10/23 17:34:42;;;;;;;9.98;4.05;;;;;;;11.90;100.00;100194.78;12796294;22;20008;-92
2022/10/23 17:40:02;;;;;;;7.20;3.95;;;;;;;11.96;100.00;100212.13;12820066;22;20015;-89
2022/10/23 17:45:03;;;;;;;9.18;4.00;;;;;;;13.02;100.00;100387.94;12839545;22;20004;-90
2022/10/23 17:50:08;;;;;;;7.97;3.67;;;;;;;12.51;100.00;100306.09;12837014;22;20409;-89
2022/10/23 17:55:09;;;;;;;5.78;3.20;;;;;;;11.54;100.00;100171.94;12860815;22;20022;-89
2022/10/23 18:00:10;;;;;;;4.30;3.35;;;;;;;12.27;100.00;100273.59;12846698;22;20012;-91
2022/10/23 18:05:10;;;;;;;9.02;3.72;;;;;;;13.00;100.00;100385.47;12898362;22;20032;-88
2022/10/23 18:10:16;;;;;;;11.32;3.58;;;;;;;12.00;100.00;100273.94;12908063;22;20434;-89
2022/10/23 18:15:17;;;;;;;6.65;3.20;;;;;;;12.42;100.00;100302.25;12896159;22;20047;-92
2022/10/23 18:20:18;;;;;;;5.57;3.13;;;;;;;13.11;100.00;100424.94;12740194;22;20533;-92
2022/10/23 18:25:41;;;;;;;4.65;3.60;;;;;;;12.63;100.00;100337.00;12654289;22;20054;-91
2022/10/23 18:30:58;;;;;;;6.30;3.00;;;;;;;12.62;100.00;100304.94;12850179;22;20027;-91
2022/10/23 18:35:58;;;;;;;9.27;4.05;;;;;;;12.68;100.00;100270.69;12787348;22;20008;-91
2022/10/23 18:40:59;;;;;;;8.68;3.05;;;;;;;12.66;100.00;100281.19;12826924;22;20004;-88
2022/10/23 18:45:59;;;;;;;6.63;2.88;;;;;;;12.58;100.00;100286.47;12882449;22;20011;-91
2022/10/23 18:51:00;;;;;;;7.65;3.45;;;;;;;12.37;100.00;100222.22;12876259;22;20442;-91
2022/10/23 18:56:01;;;;;;;5.40;2.40;;;;;;;13.31;100.00;100379.81;12862250;22;20018;-91
2022/10/23 19:01:07;;;;;;;7.97;3.00;;;;;;;12.62;100.00;100249.72;12880846;22;20041;-88
2022/10/23 19:06:11;;;;;;;5.60;2.83;;;;;;;12.71;100.00;100245.28;12814998;22;20044;-88
2022/10/23 19:11:20;;;;;;;5.97;3.17;;;;;;;12.99;100.00;100327.72;12781521;22;20031;-89
2022/10/23 19:16:34;;;;;;;9.73;2.83;;;;;;;12.45;100.00;100192.09;12771850;22;20016;-88
2022/10/23 19:21:38;;;;;;;9.43;3.00;;;;;;;12.83;100.00;100257.91;12859551;22;20342;-88
2022/10/23 19:26:39;;;;;;;7.80;3.08;;;;;;;13.63;100.00;100353.66;12805295;22;20004;-91
2022/10/23 19:31:43;;;;;;;4.78;2.90;;;;;;;12.54;100.00;100131.56;12743542;22;20016;-91
2022/10/23 19:36:53;;;;;;;18.25;3.47;;;;;;;13.17;100.00;100252.47;12802617;22;20019;-87
2022/10/23 19:41:54;;;;;;;6.30;2.67;;;;;;;13.25;100.00;100224.22;12923538;22;20018;-87
2022/10/23 19:46:55;;;;;;;6.07;3.35;;;;;;;13.36;100.00;100218.63;12841898;22;20027;-87
2022/10/23 19:51:56;;;;;;;5.05;2.83;;;;;;;13.81;100.00;100325.28;12878057;22;20019;-89
2022/10/23 19:56:56;;;;;;;14.15;4.07;;;;;;;12.89;100.00;100158.13;12882258;22;20003;-88
2022/10/23 20:01:57;;;;;;;5.93;2.78;;;;;;;12.74;100.00;100151.91;12872357;22;20000;-86
2022/10/23 20:06:58;;;;;;;10.40;3.78;;;;;;;13.13;100.00;100198.88;12880178;22;20004;-91
2022/10/23 20:11:59;;;;;;;6.95;3.03;;;;;;;13.72;100.00;100302.94;12825230;22;20020;-88
2022/10/23 20:17:00;;;;;;;6.15;2.50;;;;;;;13.78;100.00;100284.34;12876433;22;20070;-87
2022/10/23 20:22:01;;;;;;;12.00;3.08;;;;;;;13.44;100.00;100201.41;12859429;22;20023;-89
2022/10/23 20:27:02;;;;;;;6.72;3.40;;;;;;;13.62;100.00;100210.91;12866681;22;20389;-87
2022/10/23 20:32:03;;;;;;;6.18;2.38;;;;;;;13.63;100.00;100187.69;12883437;22;20012;-87
2022/10/23 20:37:03;;;;;;;4.28;2.53;;;;;;;13.88;100.00;100245.53;12798709;22;20007;-90
2022/10/23 20:42:07;;;;;;;8.00;2.30;;;;;;;14.86;100.00;100380.19;12863692;22;20000;-91
2022/10/23 20:47:08;;;;;;;6.65;2.80;;;;;;;13.27;100.00;100102.25;12868428;22;20041;-91
2022/10/23 20:52:08;;;;;;;10.38;2.78;;;;;;;13.45;100.00;100165.16;12834396;22;20511;-91
2022/10/23 20:57:09;;;;;;;5.28;2.03;;;;;;;13.71;100.00;100167.69;12745998;22;20012;-91
2022/10/23 21:02:10;;;;;;;10.48;2.22;;;;;;;13.65;100.00;100136.47;12864085;22;20000;-90
2022/10/23 21:07:10;;;;;;;6.40;2.00;;;;;;;13.71;100.00;100148.31;12922245;22;20018;-90
2022/10/23 21:12:13;;;;;;;11.07;2.65;;;;;;;14.00;100.00;100220.22;12889344;22;20019;-88
2022/10/23 21:17:19;;;;;;;9.55;2.53;;;;;;;14.83;100.00;100306.78;12820125;22;20020;-90
2022/10/23 21:22:31;;;;;;;6.25;2.22;;;;;;;13.61;100.00;100112.47;12730482;22;20012;-91
2022/10/23 21:27:34;;;;;;;6.93;2.33;;;;;;;14.04;100.00;100187.25;12801629;22;20457;-90
2022/10/23 21:32:42;;;;;;;9.50;2.20;;;;;;;13.72;100.00;100161.03;12874886;22;20016;-89
2022/10/23 21:37:43;;;;;;;4.22;2.10;;;;;;;13.39;100.00;100116.56;12755789;22;20111;-91
2022/10/23 21:42:44;;;;;;;4.60;2.13;;;;;;;14.41;100.00;100261.28;12758758;22;20580;-88
2022/10/23 21:47:45;;;;;;;4.97;2.60;;;;;;;14.06;100.00;100263.34;12884094;22;20003;-87
2022/10/23 21:52:59;;;;;;;6.38;2.53;;;;;;;13.46;100.00;100188.94;12863249;22;20016;-90
2022/10/23 21:57:59;;;;;;;6.65;3.25;;;;;;;13.25;100.00;100181.88;12889834;22;20004;-90
2022/10/23 22:03:00;;;;;;;9.32;2.53;;;;;;;13.51;100.00;100249.72;12866421;22;20030;-87
2022/10/23 22:08:00;;;;;;;5.72;2.47;;;;;;;14.36;100.00;100412.81;12892963;22;20012;-87
2022/10/23 22:13:01;;;;;;;9.80;3.08;;;;;;;13.29;100.00;100232.75;12921492;22;20342;-86
2022/10/23 22:18:02;;;;;;;10.18;3.10;;;;;;;13.61;100.00;100278.44;12918767;22;20026;-89
2022/10/23 22:23:03;;;;;;;6.47;2.85;;;;;;;13.76;100.00;100330.84;12894910;22;20016;-86
2022/10/23 22:28:03;;;;;;;8.50;2.97;;;;;;;13.69;100.00;100308.22;12919520;22;20318;-87
2022/10/23 22:33:04;;;;;;;10.32;3.42;;;;;;;13.07;100.00;100224.88;12892550;22;20011;-87
2022/10/23 22:38:04;;;;;;;9.48;3.70;;;;;;;13.61;100.00;100322.69;12894904;22;20007;-90
2022/10/23 22:43:05;;;;;;;6.07;2.80;;;;;;;13.26;100.00;100294.13;12881970;22;20039;-90
2022/10/23 22:48:07;;;;;;;5.78;2.58;;;;;;;12.72;100.00;100196.38;12896765;22;20007;-86
2022/10/23 22:53:07;;;;;;;7.32;3.13;;;;;;;12.58;100.00;100196.16;12922701;22;20031;-90